sensor_id;sensor_type;location;lat;lon;timestamp;pressure;altitude;pressure_sealevel;temperature
9119;BMP180;4594;50.994;7.126;2024-02-16T00:00:27;100179.00;;;17.90
9119;BMP180;4594;50.994;7.126;2024-02-16T00:02:53;100197.00;;;17.90
9119;BMP180;4594;50.994;7.126;2024-02-16T00:05:19;100163.00;;;17.90
9119;BMP180;4594;50.994;7.126;2024-02-16T00:07:44;100177.00;;;17.90
9119;BMP180;4594;50.994;7.126;2024-02-16T00:10:11;100181.00;;;17.90
9119;BMP180;4594;50.994;7.126;2024-02-16T00:12:39;100168.00;;;17.90
9119;BMP180;4594;50.994;7.126;2024-02-16T00:15:06;100175.00;;;18.00
9119;BMP180;4594;50.994;7.126;2024-02-16T00:17:32;100186.00;;;17.90
9119;BMP180;4594;50.994;7.126;2024-02-16T00:19:59;100184.00;;;18.00
9119;BMP180;4594;50.994;7.126;2024-02-16T00:22:25;100190.00;;;18.00
9119;BMP180;4594;50.994;7.126;2024-02-16T00:24:51;100177.00;;;18.00
9119;BMP180;4594;50.994;7.126;2024-02-16T00:27:17;100190.00;;;18.00
9119;BMP180;4594;50.994;7.126;2024-02-16T00:29:44;100173.00;;;18.00
9119;BMP180;4594;50.994;7.126;2024-02-16T00:32:11;100183.00;;;18.00
9119;BMP180;4594;50.994;7.126;2024-02-16T00:34:38;100167.00;;;18.00
9119;BMP180;4594;50.994;7.126;2024-02-16T00:37:05;100152.00;;;18.00
9119;BMP180;4594;50.994;7.126;2024-02-16T00:39:36;100184.00;;;18.00
9119;BMP180;4594;50.994;7.126;2024-02-16T00:42:02;100172.00;;;18.00
9119;BMP180;4594;50.994;7.126;2024-02-16T00:44:28;100185.00;;;18.00
9119;BMP180;4594;50.994;7.126;2024-02-16T00:46:54;100173.00;;;18.00
9119;BMP180;4594;50.994;7.126;2024-02-16T00:49:20;100164.00;;;18.00
9119;BMP180;4594;50.994;7.126;2024-02-16T00:51:45;100181.00;;;18.00
9119;BMP180;4594;50.994;7.126;2024-02-16T00:54:12;100163.00;;;18.00
9119;BMP180;4594;50.994;7.126;2024-02-16T00:56:37;100172.00;;;18.00
9119;BMP180;4594;50.994;7.126;2024-02-16T00:59:04;100179.00;;;18.00
9119;BMP180;4594;50.994;7.126;2024-02-16T01:01:30;100178.00;;;18.00
9119;BMP180;4594;50.994;7.126;2024-02-16T01:03:56;100146.00;;;18.00
9119;BMP180;4594;50.994;7.126;2024-02-16T01:06:22;100165.00;;;18.00
9119;BMP180;4594;50.994;7.126;2024-02-16T01:08:48;100186.00;;;18.00
9119;BMP180;4594;50.994;7.126;2024-02-16T01:11:13;100182.00;;;18.00
9119;BMP180;4594;50.994;7.126;2024-02-16T01:13:40;100185.00;;;18.10
9119;BMP180;4594;50.994;7.126;2024-02-16T01:16:06;100166.00;;;18.10
9119;BMP180;4594;50.994;7.126;2024-02-16T01:18:32;100184.00;;;18.10
9119;BMP180;4594;50.994;7.126;2024-02-16T01:20:58;100180.00;;;18.10
9119;BMP180;4594;50.994;7.126;2024-02-16T01:23:24;100154.00;;;18.10
9119;BMP180;4594;50.994;7.126;2024-02-16T01:25:50;100170.00;;;18.10
9119;BMP180;4594;50.994;7.126;2024-02-16T01:28:16;100171.00;;;18.10
9119;BMP180;4594;50.994;7.126;2024-02-16T01:30:42;100173.00;;;18.10
9119;BMP180;4594;50.994;7.126;2024-02-16T01:33:07;100155.00;;;18.10
9119;BMP180;4594;50.994;7.126;2024-02-16T01:35:34;100170.00;;;18.10
9119;BMP180;4594;50.994;7.126;2024-02-16T01:38:00;100162.00;;;18.10
9119;BMP180;4594;50.994;7.126;2024-02-16T01:40:28;100174.00;;;18.10
9119;BMP180;4594;50.994;7.126;2024-02-16T01:42:54;100155.00;;;18.10
9119;BMP180;4594;50.994;7.126;2024-02-16T01:45:21;100161.00;;;18.10
9119;BMP180;4594;50.994;7.126;2024-02-16T01:47:50;100164.00;;;18.10
9119;BMP180;4594;50.994;7.126;2024-02-16T01:50:18;100155.00;;;18.10
9119;BMP180;4594;50.994;7.126;2024-02-16T01:52:45;100172.00;;;18.10
9119;BMP180;4594;50.994;7.126;2024-02-16T01:55:12;100144.00;;;18.10
9119;BMP180;4594;50.994;7.126;2024-02-16T01:57:46;100166.00;;;18.20
9119;BMP180;4594;50.994;7.126;2024-02-16T02:00:14;100159.00;;;18.20
9119;BMP180;4594;50.994;7.126;2024-02-16T02:02:46;100148.00;;;18.20
9119;BMP180;4594;50.994;7.126;2024-02-16T02:05:13;100161.00;;;18.20
9119;BMP180;4594;50.994;7.126;2024-02-16T02:07:40;100148.00;;;18.20
9119;BMP180;4594;50.994;7.126;2024-02-16T02:10:07;100135.00;;;18.10
9119;BMP180;4594;50.994;7.126;2024-02-16T02:12:32;100151.00;;;18.10
9119;BMP180;4594;50.994;7.126;2024-02-16T02:14:59;100147.00;;;18.10
9119;BMP180;4594;50.994;7.126;2024-02-16T02:17:24;100157.00;;;18.10
9119;BMP180;4594;50.994;7.126;2024-02-16T02:19:50;100151.00;;;18.20
9119;BMP180;4594;50.994;7.126;2024-02-16T02:22:17;100148.00;;;18.20
9119;BMP180;4594;50.994;7.126;2024-02-16T02:24:44;100149.00;;;18.20
9119;BMP180;4594;50.994;7.126;2024-02-16T02:27:11;100148.00;;;18.20
9119;BMP180;4594;50.994;7.126;2024-02-16T02:29:38;100156.00;;;18.30
9119;BMP180;4594;50.994;7.126;2024-02-16T02:32:05;100148.00;;;18.30
9119;BMP180;4594;50.994;7.126;2024-02-16T02:34:31;100147.00;;;18.30
9119;BMP180;4594;50.994;7.126;2024-02-16T02:36:56;100170.00;;;18.20
9119;BMP180;4594;50.994;7.126;2024-02-16T02:39:23;100161.00;;;18.30
9119;BMP180;4594;50.994;7.126;2024-02-16T02:41:48;100138.00;;;18.30
9119;BMP180;4594;50.994;7.126;2024-02-16T02:44:14;100136.00;;;18.20
9119;BMP180;4594;50.994;7.126;2024-02-16T02:46:40;100116.00;;;18.10
9119;BMP180;4594;50.994;7.126;2024-02-16T02:49:06;100121.00;;;18.10
9119;BMP180;4594;50.994;7.126;2024-02-16T02:51:32;100135.00;;;18.00
9119;BMP180;4594;50.994;7.126;2024-02-16T02:53:58;100142.00;;;18.10
9119;BMP180;4594;50.994;7.126;2024-02-16T02:56:23;100145.00;;;18.10
9119;BMP180;4594;50.994;7.126;2024-02-16T02:58:49;100137.00;;;18.10
9119;BMP180;4594;50.994;7.126;2024-02-16T03:01:15;100145.00;;;18.10
9119;BMP180;4594;50.994;7.126;2024-02-16T03:03:41;100120.00;;;18.20
9119;BMP180;4594;50.994;7.126;2024-02-16T03:06:08;100147.00;;;18.20
9119;BMP180;4594;50.994;7.126;2024-02-16T03:08:35;100132.00;;;18.20
9119;BMP180;4594;50.994;7.126;2024-02-16T03:11:00;100122.00;;;18.30
9119;BMP180;4594;50.994;7.126;2024-02-16T03:13:27;100144.00;;;18.30
9119;BMP180;4594;50.994;7.126;2024-02-16T03:15:53;100126.00;;;18.30
9119;BMP180;4594;50.994;7.126;2024-02-16T03:18:19;100144.00;;;18.20
9119;BMP180;4594;50.994;7.126;2024-02-16T03:20:45;100135.00;;;18.10
9119;BMP180;4594;50.994;7.126;2024-02-16T03:23:14;100107.00;;;18.00
9119;BMP180;4594;50.994;7.126;2024-02-16T03:25:40;100118.00;;;17.90
9119;BMP180;4594;50.994;7.126;2024-02-16T03:28:11;100128.00;;;17.80
9119;BMP180;4594;50.994;7.126;2024-02-16T03:30:37;100114.00;;;17.70
9119;BMP180;4594;50.994;7.126;2024-02-16T03:33:04;100120.00;;;17.60
9119;BMP180;4594;50.994;7.126;2024-02-16T03:35:29;100132.00;;;17.50
9119;BMP180;4594;50.994;7.126;2024-02-16T03:37:55;100125.00;;;17.50
9119;BMP180;4594;50.994;7.126;2024-02-16T03:40:23;100124.00;;;17.40
9119;BMP180;4594;50.994;7.126;2024-02-16T03:42:50;100103.00;;;17.40
9119;BMP180;4594;50.994;7.126;2024-02-16T03:45:16;100133.00;;;17.40
9119;BMP180;4594;50.994;7.126;2024-02-16T03:47:43;100143.00;;;17.30
9119;BMP180;4594;50.994;7.126;2024-02-16T03:50:09;100112.00;;;17.30
9119;BMP180;4594;50.994;7.126;2024-02-16T03:52:35;100120.00;;;17.20
9119;BMP180;4594;50.994;7.126;2024-02-16T03:55:01;100129.00;;;17.20
9119;BMP180;4594;50.994;7.126;2024-02-16T03:57:26;100127.00;;;17.20
9119;BMP180;4594;50.994;7.126;2024-02-16T03:59:52;100136.00;;;17.10
9119;BMP180;4594;50.994;7.126;2024-02-16T04:02:18;100131.00;;;17.10
9119;BMP180;4594;50.994;7.126;2024-02-16T04:04:44;100121.00;;;17.10
9119;BMP180;4594;50.994;7.126;2024-02-16T04:07:10;100135.00;;;17.10
9119;BMP180;4594;50.994;7.126;2024-02-16T04:09:36;100116.00;;;17.10
9119;BMP180;4594;50.994;7.126;2024-02-16T04:12:02;100127.00;;;17.10
9119;BMP180;4594;50.994;7.126;2024-02-16T04:14:30;100106.00;;;17.10
9119;BMP180;4594;50.994;7.126;2024-02-16T04:16:56;100131.00;;;17.10
9119;BMP180;4594;50.994;7.126;2024-02-16T04:19:25;100136.00;;;17.10
9119;BMP180;4594;50.994;7.126;2024-02-16T04:21:51;100134.00;;;17.10
9119;BMP180;4594;50.994;7.126;2024-02-16T04:24:17;100130.00;;;17.10
9119;BMP180;4594;50.994;7.126;2024-02-16T04:26:43;100139.00;;;17.10
9119;BMP180;4594;50.994;7.126;2024-02-16T04:29:09;100121.00;;;17.10
9119;BMP180;4594;50.994;7.126;2024-02-16T04:31:35;100103.00;;;17.10
9119;BMP180;4594;50.994;7.126;2024-02-16T04:34:01;100138.00;;;17.10
9119;BMP180;4594;50.994;7.126;2024-02-16T04:36:27;100123.00;;;17.10
9119;BMP180;4594;50.994;7.126;2024-02-16T04:38:53;100135.00;;;17.10
9119;BMP180;4594;50.994;7.126;2024-02-16T04:41:21;100141.00;;;17.10
9119;BMP180;4594;50.994;7.126;2024-02-16T04:43:47;100119.00;;;17.10
9119;BMP180;4594;50.994;7.126;2024-02-16T04:46:16;100137.00;;;17.10
9119;BMP180;4594;50.994;7.126;2024-02-16T04:48:42;100155.00;;;17.20
9119;BMP180;4594;50.994;7.126;2024-02-16T04:51:08;100150.00;;;17.20
9119;BMP180;4594;50.994;7.126;2024-02-16T04:53:34;100166.00;;;17.20
9119;BMP180;4594;50.994;7.126;2024-02-16T04:55:59;100162.00;;;17.20
9119;BMP180;4594;50.994;7.126;2024-02-16T04:58:27;100153.00;;;17.20
9119;BMP180;4594;50.994;7.126;2024-02-16T05:00:53;100159.00;;;17.20
9119;BMP180;4594;50.994;7.126;2024-02-16T05:03:19;100143.00;;;17.20
9119;BMP180;4594;50.994;7.126;2024-02-16T05:05:45;100154.00;;;17.20
9119;BMP180;4594;50.994;7.126;2024-02-16T05:08:11;100144.00;;;17.20
9119;BMP180;4594;50.994;7.126;2024-02-16T05:10:37;100162.00;;;17.20
9119;BMP180;4594;50.994;7.126;2024-02-16T05:13:04;100152.00;;;17.30
9119;BMP180;4594;50.994;7.126;2024-02-16T05:15:30;100160.00;;;17.30
9119;BMP180;4594;50.994;7.126;2024-02-16T05:17:55;100147.00;;;17.30
9119;BMP180;4594;50.994;7.126;2024-02-16T05:20:21;100163.00;;;17.30
9119;BMP180;4594;50.994;7.126;2024-02-16T05:22:47;100146.00;;;17.30
9119;BMP180;4594;50.994;7.126;2024-02-16T05:25:15;100163.00;;;17.40
9119;BMP180;4594;50.994;7.126;2024-02-16T05:27:41;100138.00;;;17.40
9119;BMP180;4594;50.994;7.126;2024-02-16T05:30:10;100158.00;;;17.40
9119;BMP180;4594;50.994;7.126;2024-02-16T05:32:38;100168.00;;;17.40
9119;BMP180;4594;50.994;7.126;2024-02-16T05:35:06;100170.00;;;17.40
9119;BMP180;4594;50.994;7.126;2024-02-16T05:37:44;100166.00;;;17.40
9119;BMP180;4594;50.994;7.126;2024-02-16T05:40:11;100168.00;;;17.50
9119;BMP180;4594;50.994;7.126;2024-02-16T05:42:57;100168.00;;;17.50
9119;BMP180;4594;50.994;7.126;2024-02-16T05:45:24;100144.00;;;17.50
9119;BMP180;4594;50.994;7.126;2024-02-16T05:47:52;100147.00;;;17.50
9119;BMP180;4594;50.994;7.126;2024-02-16T05:50:20;100149.00;;;17.50
9119;BMP180;4594;50.994;7.126;2024-02-16T05:52:45;100148.00;;;17.50
9119;BMP180;4594;50.994;7.126;2024-02-16T05:55:12;100143.00;;;17.50
9119;BMP180;4594;50.994;7.126;2024-02-16T05:57:38;100143.00;;;17.60
9119;BMP180;4594;50.994;7.126;2024-02-16T06:00:06;100142.00;;;17.60
9119;BMP180;4594;50.994;7.126;2024-02-16T06:02:33;100123.00;;;17.70
9119;BMP180;4594;50.994;7.126;2024-02-16T06:05:00;100142.00;;;17.70
9119;BMP180;4594;50.994;7.126;2024-02-16T06:07:26;100159.00;;;17.70
9119;BMP180;4594;50.994;7.126;2024-02-16T06:09:52;100145.00;;;17.80
9119;BMP180;4594;50.994;7.126;2024-02-16T06:12:19;100131.00;;;17.80
9119;BMP180;4594;50.994;7.126;2024-02-16T06:14:45;100143.00;;;17.90
9119;BMP180;4594;50.994;7.126;2024-02-16T06:17:11;100140.00;;;17.90
9119;BMP180;4594;50.994;7.126;2024-02-16T06:19:43;100150.00;;;18.00
9119;BMP180;4594;50.994;7.126;2024-02-16T06:22:09;100145.00;;;18.00
9119;BMP180;4594;50.994;7.126;2024-02-16T06:24:36;100165.00;;;18.00
9119;BMP180;4594;50.994;7.126;2024-02-16T06:27:02;100151.00;;;18.10
9119;BMP180;4594;50.994;7.126;2024-02-16T06:29:28;100169.00;;;18.10
9119;BMP180;4594;50.994;7.126;2024-02-16T06:31:56;100164.00;;;18.10
9119;BMP180;4594;50.994;7.126;2024-02-16T06:34:21;100163.00;;;18.10
9119;BMP180;4594;50.994;7.126;2024-02-16T06:36:47;100173.00;;;18.10
9119;BMP180;4594;50.994;7.126;2024-02-16T06:39:15;100162.00;;;18.10
9119;BMP180;4594;50.994;7.126;2024-02-16T06:41:46;100157.00;;;18.10
9119;BMP180;4594;50.994;7.126;2024-02-16T06:44:13;100156.00;;;18.10
9119;BMP180;4594;50.994;7.126;2024-02-16T06:46:39;100161.00;;;18.10
9119;BMP180;4594;50.994;7.126;2024-02-16T06:49:04;100154.00;;;18.10
9119;BMP180;4594;50.994;7.126;2024-02-16T06:51:30;100157.00;;;18.20
9119;BMP180;4594;50.994;7.126;2024-02-16T06:53:56;100148.00;;;18.20
9119;BMP180;4594;50.994;7.126;2024-02-16T06:56:22;100162.00;;;18.20
9119;BMP180;4594;50.994;7.126;2024-02-16T06:58:48;100146.00;;;18.20
9119;BMP180;4594;50.994;7.126;2024-02-16T07:01:14;100161.00;;;18.30
9119;BMP180;4594;50.994;7.126;2024-02-16T07:03:41;100158.00;;;18.30
9119;BMP180;4594;50.994;7.126;2024-02-16T07:06:07;100184.00;;;18.30
9119;BMP180;4594;50.994;7.126;2024-02-16T07:08:36;100179.00;;;18.40
9119;BMP180;4594;50.994;7.126;2024-02-16T07:11:04;100166.00;;;18.40
9119;BMP180;4594;50.994;7.126;2024-02-16T07:13:34;100189.00;;;18.50
9119;BMP180;4594;50.994;7.126;2024-02-16T07:16:00;100198.00;;;18.50
9119;BMP180;4594;50.994;7.126;2024-02-16T07:18:26;100192.00;;;18.50
9119;BMP180;4594;50.994;7.126;2024-02-16T07:20:51;100204.00;;;18.50
9119;BMP180;4594;50.994;7.126;2024-02-16T07:23:17;100201.00;;;18.60
9119;BMP180;4594;50.994;7.126;2024-02-16T07:25:43;100212.00;;;18.60
9119;BMP180;4594;50.994;7.126;2024-02-16T07:28:09;100212.00;;;18.60
9119;BMP180;4594;50.994;7.126;2024-02-16T07:30:35;100239.00;;;18.60
9119;BMP180;4594;50.994;7.126;2024-02-16T07:33:05;100227.00;;;18.70
9119;BMP180;4594;50.994;7.126;2024-02-16T07:35:33;100220.00;;;18.70
9119;BMP180;4594;50.994;7.126;2024-02-16T07:38:01;100221.00;;;18.80
9119;BMP180;4594;50.994;7.126;2024-02-16T07:40:27;100238.00;;;18.80
9119;BMP180;4594;50.994;7.126;2024-02-16T07:42:53;100230.00;;;18.70
9119;BMP180;4594;50.994;7.126;2024-02-16T07:45:20;100235.00;;;18.70
9119;BMP180;4594;50.994;7.126;2024-02-16T07:47:46;100245.00;;;18.70
9119;BMP180;4594;50.994;7.126;2024-02-16T07:50:12;100239.00;;;18.70
9119;BMP180;4594;50.994;7.126;2024-02-16T07:52:38;100264.00;;;18.70
9119;BMP180;4594;50.994;7.126;2024-02-16T07:55:06;100257.00;;;18.70
9119;BMP180;4594;50.994;7.126;2024-02-16T07:57:32;100272.00;;;18.70
9119;BMP180;4594;50.994;7.126;2024-02-16T07:59:57;100265.00;;;18.60
9119;BMP180;4594;50.994;7.126;2024-02-16T08:02:23;100272.00;;;18.60
9119;BMP180;4594;50.994;7.126;2024-02-16T08:04:49;100284.00;;;18.70
9119;BMP180;4594;50.994;7.126;2024-02-16T08:07:15;100285.00;;;18.70
9119;BMP180;4594;50.994;7.126;2024-02-16T08:09:45;100285.00;;;18.70
9119;BMP180;4594;50.994;7.126;2024-02-16T08:12:12;100279.00;;;18.70
9119;BMP180;4594;50.994;7.126;2024-02-16T08:14:39;100282.00;;;18.70
9119;BMP180;4594;50.994;7.126;2024-02-16T08:17:09;100295.00;;;18.70
9119;BMP180;4594;50.994;7.126;2024-02-16T08:19:37;100297.00;;;18.80
9119;BMP180;4594;50.994;7.126;2024-02-16T08:22:05;100287.00;;;18.80
9119;BMP180;4594;50.994;7.126;2024-02-16T08:24:35;100294.00;;;18.80
9119;BMP180;4594;50.994;7.126;2024-02-16T08:27:02;100288.00;;;18.70
9119;BMP180;4594;50.994;7.126;2024-02-16T08:29:28;100300.00;;;18.60
9119;BMP180;4594;50.994;7.126;2024-02-16T08:31:55;100299.00;;;18.60
9119;BMP180;4594;50.994;7.126;2024-02-16T08:34:21;100298.00;;;18.50
9119;BMP180;4594;50.994;7.126;2024-02-16T08:36:48;100295.00;;;18.50
9119;BMP180;4594;50.994;7.126;2024-02-16T08:39:15;100300.00;;;18.50
9119;BMP180;4594;50.994;7.126;2024-02-16T08:41:41;100297.00;;;18.50
9119;BMP180;4594;50.994;7.126;2024-02-16T08:44:10;100294.00;;;18.50
9119;BMP180;4594;50.994;7.126;2024-02-16T08:46:39;100301.00;;;18.60
9119;BMP180;4594;50.994;7.126;2024-02-16T08:49:08;100309.00;;;18.60
9119;BMP180;4594;50.994;7.126;2024-02-16T08:51:35;100312.00;;;18.70
9119;BMP180;4594;50.994;7.126;2024-02-16T08:54:01;100305.00;;;18.70
9119;BMP180;4594;50.994;7.126;2024-02-16T08:56:28;100315.00;;;18.80
9119;BMP180;4594;50.994;7.126;2024-02-16T08:58:54;100326.00;;;18.90
9119;BMP180;4594;50.994;7.126;2024-02-16T09:01:33;100318.00;;;19.00
9119;BMP180;4594;50.994;7.126;2024-02-16T09:03:59;100323.00;;;19.20
9119;BMP180;4594;50.994;7.126;2024-02-16T09:06:26;100315.00;;;19.30
9119;BMP180;4594;50.994;7.126;2024-02-16T09:08:52;100326.00;;;19.40
9119;BMP180;4594;50.994;7.126;2024-02-16T09:11:18;100318.00;;;19.60
9119;BMP180;4594;50.994;7.126;2024-02-16T09:13:44;100320.00;;;19.60
9119;BMP180;4594;50.994;7.126;2024-02-16T09:16:10;100321.00;;;19.60
9119;BMP180;4594;50.994;7.126;2024-02-16T09:18:35;100332.00;;;19.50
9119;BMP180;4594;50.994;7.126;2024-02-16T09:21:05;100330.00;;;19.60
9119;BMP180;4594;50.994;7.126;2024-02-16T09:23:33;100334.00;;;19.60
9119;BMP180;4594;50.994;7.126;2024-02-16T09:25:59;100337.00;;;19.70
9119;BMP180;4594;50.994;7.126;2024-02-16T09:28:28;100346.00;;;19.80
9119;BMP180;4594;50.994;7.126;2024-02-16T09:30:55;100343.00;;;19.90
9119;BMP180;4594;50.994;7.126;2024-02-16T09:33:21;100343.00;;;20.10
9119;BMP180;4594;50.994;7.126;2024-02-16T09:35:48;100361.00;;;20.10
9119;BMP180;4594;50.994;7.126;2024-02-16T09:38:14;100350.00;;;20.20
9119;BMP180;4594;50.994;7.126;2024-02-16T09:40:40;100357.00;;;20.20
9119;BMP180;4594;50.994;7.126;2024-02-16T09:43:06;100371.00;;;20.20
9119;BMP180;4594;50.994;7.126;2024-02-16T09:45:33;100362.00;;;20.00
9119;BMP180;4594;50.994;7.126;2024-02-16T09:47:59;100371.00;;;19.90
9119;BMP180;4594;50.994;7.126;2024-02-16T09:50:25;100372.00;;;19.80
9119;BMP180;4594;50.994;7.126;2024-02-16T09:52:56;100381.00;;;19.70
9119;BMP180;4594;50.994;7.126;2024-02-16T09:55:21;100379.00;;;19.60
9119;BMP180;4594;50.994;7.126;2024-02-16T09:57:58;100378.00;;;19.50
9119;BMP180;4594;50.994;7.126;2024-02-16T10:00:25;100389.00;;;19.50
9119;BMP180;4594;50.994;7.126;2024-02-16T10:02:50;100381.00;;;19.50
9119;BMP180;4594;50.994;7.126;2024-02-16T10:05:19;100387.00;;;19.50
9119;BMP180;4594;50.994;7.126;2024-02-16T10:07:46;100392.00;;;19.40
9119;BMP180;4594;50.994;7.126;2024-02-16T10:10:29;100397.00;;;19.40
9119;BMP180;4594;50.994;7.126;2024-02-16T10:13:06;100395.00;;;19.40
9119;BMP180;4594;50.994;7.126;2024-02-16T10:15:34;100399.00;;;19.40
9119;BMP180;4594;50.994;7.126;2024-02-16T10:18:05;100407.00;;;19.30
9119;BMP180;4594;50.994;7.126;2024-02-16T10:20:33;100403.00;;;19.30
9119;BMP180;4594;50.994;7.126;2024-02-16T10:23:10;100399.00;;;19.30
9119;BMP180;4594;50.994;7.126;2024-02-16T10:25:38;100408.00;;;19.40
9119;BMP180;4594;50.994;7.126;2024-02-16T10:28:08;100411.00;;;19.40
9119;BMP180;4594;50.994;7.126;2024-02-16T10:30:37;100420.00;;;19.50
9119;BMP180;4594;50.994;7.126;2024-02-16T10:33:05;100419.00;;;19.50
9119;BMP180;4594;50.994;7.126;2024-02-16T10:35:37;100424.00;;;19.60
9119;BMP180;4594;50.994;7.126;2024-02-16T10:38:05;100433.00;;;19.70
9119;BMP180;4594;50.994;7.126;2024-02-16T10:40:40;100429.00;;;19.70
9119;BMP180;4594;50.994;7.126;2024-02-16T10:43:08;100436.00;;;19.80
9119;BMP180;4594;50.994;7.126;2024-02-16T10:45:36;100440.00;;;19.80
9119;BMP180;4594;50.994;7.126;2024-02-16T10:48:04;100440.00;;;19.80
9119;BMP180;4594;50.994;7.126;2024-02-16T10:50:35;100442.00;;;19.80
9119;BMP180;4594;50.994;7.126;2024-02-16T10:53:17;100440.00;;;19.70
9119;BMP180;4594;50.994;7.126;2024-02-16T10:55:44;100448.00;;;19.70
9119;BMP180;4594;50.994;7.126;2024-02-16T10:58:11;100446.00;;;19.70
9119;BMP180;4594;50.994;7.126;2024-02-16T11:00:55;100449.00;;;19.70
9119;BMP180;4594;50.994;7.126;2024-02-16T11:03:24;100456.00;;;19.60
9119;BMP180;4594;50.994;7.126;2024-02-16T11:05:50;100461.00;;;19.70
9119;BMP180;4594;50.994;7.126;2024-02-16T11:08:19;100457.00;;;19.60
9119;BMP180;4594;50.994;7.126;2024-02-16T11:11:01;100452.00;;;19.60
9119;BMP180;4594;50.994;7.126;2024-02-16T11:13:34;100443.00;;;19.60
9119;BMP180;4594;50.994;7.126;2024-02-16T11:16:08;100453.00;;;19.60
9119;BMP180;4594;50.994;7.126;2024-02-16T11:18:40;100450.00;;;19.70
9119;BMP180;4594;50.994;7.126;2024-02-16T11:21:11;100453.00;;;19.70
9119;BMP180;4594;50.994;7.126;2024-02-16T11:23:39;100443.00;;;19.70
9119;BMP180;4594;50.994;7.126;2024-02-16T11:26:09;100438.00;;;19.70
9119;BMP180;4594;50.994;7.126;2024-02-16T11:28:42;100458.00;;;19.70
9119;BMP180;4594;50.994;7.126;2024-02-16T11:31:08;100456.00;;;19.70
9119;BMP180;4594;50.994;7.126;2024-02-16T11:33:34;100465.00;;;19.70
9119;BMP180;4594;50.994;7.126;2024-02-16T11:36:05;100458.00;;;19.70
9119;BMP180;4594;50.994;7.126;2024-02-16T11:38:34;100454.00;;;19.80
9119;BMP180;4594;50.994;7.126;2024-02-16T11:41:07;100461.00;;;19.80
9119;BMP180;4594;50.994;7.126;2024-02-16T11:43:36;100461.00;;;19.80
9119;BMP180;4594;50.994;7.126;2024-02-16T11:46:15;100459.00;;;19.90
9119;BMP180;4594;50.994;7.126;2024-02-16T11:48:43;100461.00;;;19.90
9119;BMP180;4594;50.994;7.126;2024-02-16T11:51:08;100465.00;;;19.90
9119;BMP180;4594;50.994;7.126;2024-02-16T11:53:34;100457.00;;;20.00
9119;BMP180;4594;50.994;7.126;2024-02-16T11:56:00;100455.00;;;20.10
9119;BMP180;4594;50.994;7.126;2024-02-16T11:58:27;100472.00;;;20.00
9119;BMP180;4594;50.994;7.126;2024-02-16T12:00:53;100466.00;;;20.20
9119;BMP180;4594;50.994;7.126;2024-02-16T12:03:24;100469.00;;;20.20
9119;BMP180;4594;50.994;7.126;2024-02-16T12:05:55;100476.00;;;20.30
9119;BMP180;4594;50.994;7.126;2024-02-16T12:08:22;100466.00;;;20.30
9119;BMP180;4594;50.994;7.126;2024-02-16T12:10:49;100475.00;;;20.40
9119;BMP180;4594;50.994;7.126;2024-02-16T12:13:19;100469.00;;;20.40
9119;BMP180;4594;50.994;7.126;2024-02-16T12:15:46;100475.00;;;20.30
9119;BMP180;4594;50.994;7.126;2024-02-16T12:18:22;100473.00;;;20.30
9119;BMP180;4594;50.994;7.126;2024-02-16T12:21:06;100473.00;;;20.20
9119;BMP180;4594;50.994;7.126;2024-02-16T12:23:33;100473.00;;;20.10
9119;BMP180;4594;50.994;7.126;2024-02-16T12:26:03;100483.00;;;20.00
9119;BMP180;4594;50.994;7.126;2024-02-16T12:28:30;100483.00;;;20.00
9119;BMP180;4594;50.994;7.126;2024-02-16T12:31:00;100486.00;;;20.00
9119;BMP180;4594;50.994;7.126;2024-02-16T12:33:26;100478.00;;;20.00
9119;BMP180;4594;50.994;7.126;2024-02-16T12:35:52;100481.00;;;19.90
9119;BMP180;4594;50.994;7.126;2024-02-16T12:38:19;100476.00;;;19.90
9119;BMP180;4594;50.994;7.126;2024-02-16T12:40:49;100489.00;;;19.90
9119;BMP180;4594;50.994;7.126;2024-02-16T12:43:15;100498.00;;;19.90
9119;BMP180;4594;50.994;7.126;2024-02-16T12:45:41;100506.00;;;19.80
9119;BMP180;4594;50.994;7.126;2024-02-16T12:48:07;100505.00;;;19.80
9119;BMP180;4594;50.994;7.126;2024-02-16T12:50:35;100495.00;;;19.80
9119;BMP180;4594;50.994;7.126;2024-02-16T12:53:01;100502.00;;;19.80
9119;BMP180;4594;50.994;7.126;2024-02-16T12:55:27;100506.00;;;19.80
9119;BMP180;4594;50.994;7.126;2024-02-16T12:57:53;100494.00;;;19.70
9119;BMP180;4594;50.994;7.126;2024-02-16T13:00:19;100507.00;;;19.80
9119;BMP180;4594;50.994;7.126;2024-02-16T13:02:45;100509.00;;;19.80
9119;BMP180;4594;50.994;7.126;2024-02-16T13:05:10;100523.00;;;19.90
9119;BMP180;4594;50.994;7.126;2024-02-16T13:07:37;100504.00;;;19.90
9119;BMP180;4594;50.994;7.126;2024-02-16T13:10:08;100507.00;;;20.00
9119;BMP180;4594;50.994;7.126;2024-02-16T13:12:34;100509.00;;;20.00
9119;BMP180;4594;50.994;7.126;2024-02-16T13:15:00;100512.00;;;20.00
9119;BMP180;4594;50.994;7.126;2024-02-16T13:17:27;100523.00;;;19.90
9119;BMP180;4594;50.994;7.126;2024-02-16T13:19:53;100528.00;;;19.90
9119;BMP180;4594;50.994;7.126;2024-02-16T13:22:19;100540.00;;;19.90
9119;BMP180;4594;50.994;7.126;2024-02-16T13:24:44;100536.00;;;19.90
9119;BMP180;4594;50.994;7.126;2024-02-16T13:27:10;100521.00;;;19.80
9119;BMP180;4594;50.994;7.126;2024-02-16T13:29:36;100525.00;;;19.80
9119;BMP180;4594;50.994;7.126;2024-02-16T13:32:02;100533.00;;;19.80
9119;BMP180;4594;50.994;7.126;2024-02-16T13:34:29;100537.00;;;19.70
9119;BMP180;4594;50.994;7.126;2024-02-16T13:36:56;100537.00;;;19.70
9119;BMP180;4594;50.994;7.126;2024-02-16T13:39:21;100530.00;;;19.70
9119;BMP180;4594;50.994;7.126;2024-02-16T13:41:48;100534.00;;;19.60
9119;BMP180;4594;50.994;7.126;2024-02-16T13:44:17;100539.00;;;19.50
9119;BMP180;4594;50.994;7.126;2024-02-16T13:46:46;100535.00;;;19.50
9119;BMP180;4594;50.994;7.126;2024-02-16T13:49:13;100541.00;;;19.40
9119;BMP180;4594;50.994;7.126;2024-02-16T13:51:41;100547.00;;;19.30
9119;BMP180;4594;50.994;7.126;2024-02-16T13:54:07;100547.00;;;19.30
9119;BMP180;4594;50.994;7.126;2024-02-16T13:56:32;100549.00;;;19.20
9119;BMP180;4594;50.994;7.126;2024-02-16T13:58:58;100563.00;;;19.20
9119;BMP180;4594;50.994;7.126;2024-02-16T14:01:24;100550.00;;;19.20
9119;BMP180;4594;50.994;7.126;2024-02-16T14:03:50;100556.00;;;19.20
9119;BMP180;4594;50.994;7.126;2024-02-16T14:06:16;100558.00;;;19.20
9119;BMP180;4594;50.994;7.126;2024-02-16T14:08:42;100558.00;;;19.20
9119;BMP180;4594;50.994;7.126;2024-02-16T14:11:07;100554.00;;;19.20
9119;BMP180;4594;50.994;7.126;2024-02-16T14:13:35;100558.00;;;19.20
9119;BMP180;4594;50.994;7.126;2024-02-16T14:16:01;100565.00;;;19.20
9119;BMP180;4594;50.994;7.126;2024-02-16T14:18:26;100555.00;;;19.20
9119;BMP180;4594;50.994;7.126;2024-02-16T14:20:52;100564.00;;;19.10